Tyler, Washington
Current Conditions -  °F | °C
As of 5:58 AM on Monday 26 Jan 2015 (Local Time) from KSKA Reporting Station
Moderate Fog Moderate Fog  
Wind Chill: 28°   Ceiling: 100
Heat Index: 34°   Visibility: 0.5mi
Dew Point: 34°   Wind: 7mph
Humidity: 100%   Direction: 60°ENE
Pressure: 30.08"   Gusts: NA
Location:  47.411°N, 117.628°W
Report Text: KSKA 261358Z AUTO 06006KT 1/2SM R05/3000FT FG VV001 01/01 A3008 RMK AO2 SLP206 T00110011
Loading
Personal Weather Stations






























Interactive Weather Map New forecast layout! Learn more

10-Day Weather Forecast

Advertisements
Track Severe Weather on mobile